Time;durP1;ratioP1;P1;durP2;ratioP2;P2;SDS_P1;SDS_P2;PMS_P1;PMS_P2;Temp;Humidity;BMP_temperature;BMP_pressure;BME280_temperature;BME280_humidity;BME280_pressure;Samples;Min_cycle;Max_cycle;Signal;HPM_P1;HPM_P2
2024/01/03 00:00:20;;;;;;;21.85;9.07;;;;;;;6.23;100.00;100126.66;5057468;28;20060;-70
2024/01/03 00:02:46;;;;;;;17.02;8.13;;;;;;;6.23;100.00;100126.66;5056474;28;20055;-70
2024/01/03 00:05:12;;;;;;;22.23;8.93;;;;;;;6.24;100.00;100127.50;5057067;28;20050;-70
2024/01/03 00:07:38;;;;;;;23.05;10.77;;;;;;;6.24;100.00;100123.13;5056768;28;20481;-70
2024/01/03 00:10:15;;;;;;;20.58;10.48;;;;;;;6.22;100.00;100109.50;5064436;28;20070;-71
2024/01/03 00:12:41;;;;;;;20.90;10.43;;;;;;;6.23;100.00;100111.16;5058851;28;21701;-71
2024/01/03 00:15:35;;;;;;;23.77;10.20;;;;;;;6.23;100.00;100116.31;5066067;28;20086;-70
2024/01/03 00:18:04;;;;;;;21.98;10.20;;;;;;;6.25;100.00;100123.97;5060964;28;20028;-71
2024/01/03 00:20:32;;;;;;;18.00;9.63;;;;;;;6.19;100.00;100120.09;5055308;28;20040;-70
2024/01/03 00:22:57;;;;;;;18.50;9.52;;;;;;;6.18;100.00;100108.13;5061152;28;20108;-70
2024/01/03 00:25:28;;;;;;;20.20;9.80;;;;;;;6.14;100.00;100098.16;5055062;28;20671;-70
2024/01/03 00:27:54;;;;;;;20.77;9.80;;;;;;;6.10;100.00;100089.84;5057291;28;20121;-70
2024/01/03 00:30:20;;;;;;;20.23;9.80;;;;;;;6.08;100.00;100071.03;5067192;28;20141;-70
2024/01/03 00:32:46;;;;;;;19.58;8.90;;;;;;;6.02;100.00;100061.19;5053966;28;20059;-70
2024/01/03 00:35:12;;;;;;;27.02;10.50;;;;;;;6.03;100.00;100064.59;5056126;28;20040;-70
2024/01/03 00:37:38;;;;;;;22.30;10.20;;;;;;;6.03;100.00;100062.81;5054894;28;20105;-70
2024/01/03 00:40:09;;;;;;;21.13;8.98;;;;;;;6.06;100.00;100072.94;5058206;28;20044;-71
2024/01/03 00:42:35;;;;;;;23.27;9.73;;;;;;;6.11;100.00;100081.13;5056244;28;20234;-71
2024/01/03 00:45:00;;;;;;;23.40;8.10;;;;;;;6.17;100.00;100070.25;5066642;28;20111;-71
2024/01/03 00:47:26;;;;;;;17.55;8.75;;;;;;;6.21;100.00;100070.81;5054490;28;20059;-71
2024/01/03 00:49:52;;;;;;;25.13;10.73;;;;;;;6.22;100.00;100064.72;5056337;28;20081;-71
2024/01/03 00:52:18;;;;;;;20.48;9.07;;;;;;;6.23;100.00;100064.59;5056258;28;20055;-71
2024/01/03 00:54:44;;;;;;;20.70;8.07;;;;;;;6.21;100.00;100061.31;5056111;28;20519;-71
2024/01/03 00:57:10;;;;;;;24.85;8.63;;;;;;;6.22;100.00;100075.88;5055949;28;20524;-71
2024/01/03 00:59:37;;;;;;;23.92;9.68;;;;;;;6.24;100.00;100068.00;5053462;28;20041;-70
2024/01/03 01:02:03;;;;;;;21.58;9.35;;;;;;;6.22;100.00;100068.13;5055558;28;20127;-71
2024/01/03 01:04:30;;;;;;;13.88;5.53;;;;;;;6.11;100.00;100073.38;5054306;28;20866;-70
2024/01/03 01:06:55;;;;;;;11.55;3.63;;;;;;;6.07;100.00;100084.91;5057428;28;20033;-71
2024/01/03 01:09:20;;;;;;;10.57;4.13;;;;;;;6.07;100.00;100084.91;5063638;28;20032;-70
2024/01/03 01:11:46;;;;;;;10.27;4.00;;;;;;;6.08;100.00;100081.38;5053235;28;20130;-71
2024/01/03 01:14:11;;;;;;;13.10;4.00;;;;;;;6.10;100.00;100089.84;5057438;28;20043;-71
2024/01/03 01:16:37;;;;;;;11.35;3.38;;;;;;;6.11;100.00;100081.13;5055482;28;20111;-70
2024/01/03 01:19:05;;;;;;;8.98;3.67;;;;;;;6.11;100.00;100088.06;5057544;28;20082;-70
2024/01/03 01:21:30;;;;;;;10.48;4.13;;;;;;;6.10;100.00;100078.66;5054865;28;20081;-70
2024/01/03 01:23:56;;;;;;;13.65;3.83;;;;;;;6.10;100.00;100074.31;5056406;28;20028;-71
2024/01/03 01:26:21;;;;;;;8.75;3.90;;;;;;;6.13;100.00;100076.66;5055245;28;20036;-71
2024/01/03 01:28:47;;;;;;;6.45;2.40;;;;;;;6.18;100.00;100076.25;5061677;28;20078;-71
2024/01/03 01:31:12;;;;;;;5.68;1.92;;;;;;;6.23;100.00;100076.69;5066266;28;20057;-71
2024/01/03 01:33:38;;;;;;;4.95;1.80;;;;;;;6.26;100.00;100079.03;5055514;28;20040;-70
2024/01/03 01:36:04;;;;;;;7.15;1.70;;;;;;;6.24;100.00;100068.81;5056427;28;20040;-71
2024/01/03 01:38:29;;;;;;;5.97;1.60;;;;;;;6.26;100.00;100063.50;5055744;28;20054;-71
2024/01/03 01:40:54;;;;;;;7.55;1.63;;;;;;;6.28;100.00;100056.44;5056173;28;20040;-71
2024/01/03 01:43:20;;;;;;;3.80;1.50;;;;;;;6.29;100.00;100058.91;5055245;28;20480;-71
2024/01/03 01:45:47;;;;;;;5.78;1.58;;;;;;;6.32;100.00;100063.81;5058778;28;20042;-71
2024/01/03 01:48:15;;;;;;;7.88;2.08;;;;;;;6.36;100.00;100066.16;5061795;28;20047;-71
2024/01/03 01:50:40;;;;;;;5.43;1.48;;;;;;;6.36;100.00;100064.41;5056139;28;20025;-71
2024/01/03 01:53:07;;;;;;;6.82;1.90;;;;;;;6.36;100.00;100063.56;5061193;28;20063;-71
2024/01/03 01:55:38;;;;;;;6.32;2.25;;;;;;;6.37;100.00;100063.44;5056332;28;20025;-70
2024/01/03 01:58:05;;;;;;;8.75;2.67;;;;;;;6.40;100.00;100057.19;5055848;28;20021;-71
2024/01/03 02:00:31;;;;;;;7.72;3.22;;;;;;;6.40;100.00;100047.66;5055320;28;20036;-71
2024/01/03 02:02:56;;;;;;;9.73;3.28;;;;;;;6.41;100.00;100043.31;5055142;28;21054;-71
2024/01/03 02:05:22;;;;;;;9.57;3.83;;;;;;;6.42;100.00;100040.59;5056043;28;20155;-70
2024/01/03 02:07:48;;;;;;;8.77;2.80;;;;;;;6.43;100.00;100042.25;5061443;28;20036;-71
2024/01/03 02:10:13;;;;;;;9.40;2.75;;;;;;;6.43;100.00;100039.66;5055430;28;20041;-71
2024/01/03 02:12:39;;;;;;;6.93;1.95;;;;;;;6.44;100.00;100025.75;5054524;28;20075;-71
2024/01/03 02:15:05;;;;;;;7.90;1.50;;;;;;;6.44;100.00;100037.88;5055054;28;20101;-71
2024/01/03 02:17:31;;;;;;;3.78;1.08;;;;;;;6.41;100.00;100022.63;5057176;28;20228;-71
2024/01/03 02:20:00;;;;;;;3.75;0.73;;;;;;;6.41;100.00;100014.84;5055372;28;20489;-71
2024/01/03 02:22:28;;;;;;;4.53;1.30;;;;;;;6.40;100.00;100008.03;5055526;28;20047;-70
2024/01/03 02:24:53;;;;;;;3.38;0.75;;;;;;;6.40;100.00;100015.78;5057223;28;20063;-71
2024/01/03 02:27:19;;;;;;;2.13;0.82;;;;;;;6.40;100.00;100003.69;5056723;28;20037;-71
2024/01/03 02:29:44;;;;;;;4.20;0.88;;;;;;;6.40;100.00;100005.44;5056818;28;20028;-70
2024/01/03 02:32:10;;;;;;;1.73;0.40;;;;;;;6.42;100.00;100013.91;5056079;28;20375;-70
2024/01/03 02:34:35;;;;;;;3.88;1.17;;;;;;;6.42;100.00;100000.97;5054812;28;20089;-71
2024/01/03 02:37:02;;;;;;;5.10;0.98;;;;;;;6.42;100.00;100006.97;5056506;28;20020;-70
2024/01/03 02:39:27;;;;;;;1.73;0.50;;;;;;;6.41;100.00;100005.31;5054398;28;20029;-71
2024/01/03 02:41:53;;;;;;;3.05;0.43;;;;;;;6.44;100.00;100012.00;5058424;28;20083;-70
2024/01/03 02:44:21;;;;;;;5.55;0.70;;;;;;;6.46;100.00;100012.69;5055678;28;20064;-70
2024/01/03 02:46:47;;;;;;;2.33;0.60;;;;;;;6.48;100.00;100009.03;5057587;28;20090;-70
2024/01/03 02:49:12;;;;;;;4.43;0.52;;;;;;;6.47;100.00;100014.34;5056353;28;20033;-70
2024/01/03 02:51:38;;;;;;;5.60;0.47;;;;;;;6.41;100.00;100012.25;5057465;28;20377;-70
2024/01/03 02:54:03;;;;;;;3.40;1.13;;;;;;;6.30;100.00;100003.63;5061537;28;20031;-71
2024/01/03 02:56:28;;;;;;;5.43;1.08;;;;;;;6.27;100.00;100003.88;5059096;28;20028;-71
2024/01/03 02:58:54;;;;;;;5.57;0.80;;;;;;;6.30;100.00;99995.03;5061470;28;20044;-70
2024/01/03 03:01:19;;;;;;;3.58;0.63;;;;;;;6.30;100.00;100002.81;5058315;28;20025;-71
2024/01/03 03:03:45;;;;;;;4.82;0.93;;;;;;;6.32;100.00;99993.16;5059060;28;20122;-70
2024/01/03 03:06:10;;;;;;;4.18;0.90;;;;;;;6.33;100.00;100000.78;5056247;28;21148;-71
2024/01/03 03:08:36;;;;;;;3.83;1.20;;;;;;;6.35;100.00;99995.47;5063534;28;20048;-71
2024/01/03 03:11:03;;;;;;;3.75;0.60;;;;;;;6.37;100.00;100003.13;5060807;28;20059;-71
2024/01/03 03:13:28;;;;;;;3.03;0.75;;;;;;;6.37;100.00;99998.75;5059407;28;20032;-70
2024/01/03 03:15:53;;;;;;;6.25;1.02;;;;;;;6.31;100.00;99989.75;5064159;28;20111;-72
2024/01/03 03:18:19;;;;;;;1.75;0.93;;;;;;;6.29;100.00;99998.56;5064305;28;20024;-71
2024/01/03 03:20:44;;;;;;;2.13;0.50;;;;;;;6.31;100.00;99991.50;5059282;28;20051;-71
2024/01/03 03:23:10;;;;;;;5.18;0.80;;;;;;;6.30;100.00;99989.88;5057454;28;20040;-71
2024/01/03 03:25:35;;;;;;;2.50;0.70;;;;;;;6.30;100.00;99985.50;5058370;28;20032;-71
2024/01/03 03:28:02;;;;;;;4.10;1.05;;;;;;;6.30;100.00;99985.50;5058787;28;20040;-72
2024/01/03 03:30:27;;;;;;;3.30;0.85;;;;;;;6.30;100.00;99985.50;5058317;28;20055;-71
2024/01/03 03:32:53;;;;;;;2.60;0.55;;;;;;;6.30;100.00;99979.53;5059202;28;20053;-72
2024/01/03 03:35:18;;;;;;;3.05;0.80;;;;;;;6.29;100.00;99975.28;5057781;28;20028;-72
2024/01/03 03:37:44;;;;;;;2.28;0.50;;;;;;;6.30;100.00;99970.00;5057928;28;20025;-71
2024/01/03 03:40:10;;;;;;;1.80;0.60;;;;;;;6.31;100.00;99969.03;5060054;28;20025;-70
2024/01/03 03:42:35;;;;;;;1.52;0.38;;;;;;;6.32;100.00;99955.16;5057948;28;20060;-71
2024/01/03 03:45:00;;;;;;;1.77;0.60;;;;;;;6.32;100.00;99959.50;5057782;28;20055;-71
2024/01/03 03:47:26;;;;;;;1.65;0.50;;;;;;;6.31;100.00;99943.16;5056367;28;20025;-71
2024/01/03 03:49:51;;;;;;;1.48;0.50;;;;;;;6.27;100.00;99936.63;5059830;28;20111;-71
2024/01/03 03:52:17;;;;;;;2.17;0.52;;;;;;;6.25;100.00;99941.09;5058766;28;20478;-71
2024/01/03 03:54:42;;;;;;;2.60;0.50;;;;;;;6.24;100.00;99936.06;5056417;28;20063;-71
2024/01/03 03:57:07;;;;;;;4.85;0.75;;;;;;;6.21;100.00;99937.13;5057360;28;20068;-71
2024/01/03 03:59:33;;;;;;;0.88;0.40;;;;;;;6.21;100.00;99929.38;5070154;28;20036;-71
2024/01/03 04:01:59;;;;;;;0.93;0.38;;;;;;;6.24;100.00;99931.69;5070404;28;20089;-71
2024/01/03 04:04:24;;;;;;;1.23;0.40;;;;;;;6.29;100.00;99926.13;5066555;28;20493;-71
2024/01/03 04:06:50;;;;;;;1.30;0.30;;;;;;;6.31;100.00;99922.47;5069514;28;20032;-72
2024/01/03 04:09:15;;;;;;;0.75;0.30;;;;;;;6.31;100.00;99916.47;5057216;28;20036;-71
2024/01/03 04:11:42;;;;;;;1.42;0.30;;;;;;;6.33;100.00;99914.56;5062488;28;20097;-71
2024/01/03 04:14:08;;;;;;;2.05;0.30;;;;;;;6.38;100.00;99917.59;5057801;28;20029;-71
2024/01/03 04:16:34;;;;;;;1.20;0.32;;;;;;;6.38;100.00;99917.59;5056846;28;20043;-71
2024/01/03 04:19:01;;;;;;;1.67;0.20;;;;;;;6.38;100.00;99919.38;5056460;28;20490;-72
2024/01/03 04:21:30;;;;;;;1.35;0.30;;;;;;;6.41;100.00;99919.09;5055445;28;20393;-71
2024/01/03 04:23:56;;;;;;;1.88;0.80;;;;;;;6.38;100.00;99915.00;5057403;28;20033;-71
2024/01/03 04:26:22;;;;;;;0.90;0.20;;;;;;;6.37;100.00;99915.97;5055989;28;20025;-71
2024/01/03 04:28:47;;;;;;;0.80;0.28;;;;;;;6.33;100.00;99912.00;5057785;28;20037;-71
2024/01/03 04:31:13;;;;;;;2.78;0.40;;;;;;;6.32;100.00;99903.41;5057550;28;20052;-70
2024/01/03 04:33:38;;;;;;;2.50;0.38;;;;;;;6.31;100.00;99906.94;5058333;28;20513;-70
2024/01/03 04:36:04;;;;;;;1.30;0.30;;;;;;;6.27;100.00;99907.34;5056697;28;20309;-71
2024/01/03 04:38:29;;;;;;;0.95;0.40;;;;;;;6.25;100.00;99907.47;5056527;28;20029;-71
2024/01/03 04:40:55;;;;;;;1.10;0.38;;;;;;;6.28;100.00;99912.38;5059521;28;20028;-71
2024/01/03 04:43:20;;;;;;;1.13;0.40;;;;;;;6.32;100.00;99908.59;5058133;28;20036;-71
2024/01/03 04:45:47;;;;;;;1.70;0.47;;;;;;;6.36;100.00;99908.31;5057673;28;20036;-71
2024/01/03 04:48:13;;;;;;;2.92;0.40;;;;;;;6.37;100.00;99910.78;5058441;28;20457;-71
2024/01/03 04:50:38;;;;;;;0.90;0.35;;;;;;;6.39;100.00;99908.06;5057017;28;20056;-71
2024/01/03 04:53:03;;;;;;;5.25;0.50;;;;;;;6.37;100.00;99909.97;5058711;28;20064;-71
2024/01/03 04:55:29;;;;;;;2.45;0.30;;;;;;;6.36;100.00;99908.31;5056802;28;20032;-71
2024/01/03 04:57:55;;;;;;;3.35;0.20;;;;;;;6.36;100.00;99916.09;5056684;28;20040;-71
2024/01/03 05:00:21;;;;;;;2.10;0.40;;;;;;;6.35;100.00;99922.22;5057806;28;20047;-71
2024/01/03 05:02:46;;;;;;;1.73;0.30;;;;;;;6.33;100.00;99915.41;5057185;28;20021;-71
2024/01/03 05:05:12;;;;;;;3.20;0.38;;;;;;;6.36;100.00;99913.50;5055747;28;20917;-71
2024/01/03 05:07:38;;;;;;;1.77;0.30;;;;;;;6.36;100.00;99910.91;5057538;28;20029;-71
2024/01/03 05:10:08;;;;;;;2.78;0.40;;;;;;;6.37;100.00;99909.97;5068533;28;20037;-71
2024/01/03 05:12:34;;;;;;;0.68;0.30;;;;;;;6.39;100.00;99918.41;5064536;28;20031;-71
2024/01/03 05:14:59;;;;;;;2.90;0.20;;;;;;;6.40;100.00;99920.06;5067036;28;20048;-71
2024/01/03 05:17:26;;;;;;;3.13;0.20;;;;;;;6.39;100.00;99918.41;5063510;28;20035;-71
2024/01/03 05:19:51;;;;;;;0.82;0.20;;;;;;;6.35;100.00;99912.69;5068734;28;20107;-71
2024/01/03 05:22:17;;;;;;;0.77;0.20;;;;;;;6.36;100.00;99916.09;5063738;28;20111;-71
2024/01/03 05:24:42;;;;;;;0.57;0.20;;;;;;;6.35;100.00;99911.88;5061590;28;20442;-71
2024/01/03 05:27:07;;;;;;;1.05;0.20;;;;;;;6.37;100.00;99912.56;5055794;28;20511;-70
2024/01/03 05:29:33;;;;;;;0.73;0.20;;;;;;;6.36;100.00;99903.97;5054988;28;20048;-70
2024/01/03 05:31:59;;;;;;;0.73;0.20;;;;;;;6.34;100.00;99900.69;5057278;28;20490;-70
2024/01/03 05:34:24;;;;;;;1.05;0.30;;;;;;;6.32;100.00;99900.00;5054913;28;20051;-71
2024/01/03 05:36:49;;;;;;;2.67;0.30;;;;;;;6.29;100.00;99898.50;5057380;28;20032;-71
2024/01/03 05:39:15;;;;;;;1.20;0.40;;;;;;;6.29;100.00;99908.84;5057378;28;20052;-70
2024/01/03 05:41:40;;;;;;;0.93;0.40;;;;;;;6.30;100.00;99909.66;5058607;28;20795;-71
2024/01/03 05:44:06;;;;;;;2.05;0.25;;;;;;;6.28;100.00;99917.56;5057758;28;20105;-70
2024/01/03 05:46:31;;;;;;;0.80;0.30;;;;;;;6.30;100.00;99917.44;5056257;28;20044;-71
2024/01/03 05:48:58;;;;;;;2.22;0.50;;;;;;;6.31;100.00;99916.47;5057469;28;20032;-71
2024/01/03 05:51:24;;;;;;;0.93;0.47;;;;;;;6.29;100.00;99924.38;5056328;28;20047;-70
2024/01/03 05:53:49;;;;;;;0.65;0.40;;;;;;;6.31;100.00;99924.25;5057707;28;20036;-71
2024/01/03 05:56:15;;;;;;;1.20;0.28;;;;;;;6.33;100.00;99924.94;5057328;28;20147;-71
2024/01/03 05:58:42;;;;;;;0.60;0.20;;;;;;;6.36;100.00;99926.44;5055783;28;20115;-70
2024/01/03 06:01:08;;;;;;;1.98;0.88;;;;;;;6.37;100.00;99941.00;5057013;28;20037;-71
2024/01/03 06:03:34;;;;;;;3.95;0.70;;;;;;;6.35;100.00;99935.97;5054335;28;20024;-70
2024/01/03 06:05:59;;;;;;;1.60;0.70;;;;;;;6.31;100.00;99927.66;5052128;28;20025;-70
2024/01/03 06:08:25;;;;;;;4.53;0.70;;;;;;;6.31;100.00;99932.00;5062468;28;20036;-70
2024/01/03 06:10:50;;;;;;;2.00;1.02;;;;;;;6.30;100.00;99941.53;5058788;28;20043;-71
2024/01/03 06:13:16;;;;;;;5.32;0.60;;;;;;;6.36;100.00;99944.56;5064329;28;20039;-71
2024/01/03 06:15:41;;;;;;;2.10;0.80;;;;;;;6.36;100.00;99958.31;5064672;28;20048;-71
2024/01/03 06:18:08;;;;;;;1.77;1.00;;;;;;;6.38;100.00;99958.19;5068133;28;20021;-71
2024/01/03 06:20:33;;;;;;;2.50;1.00;;;;;;;6.38;100.00;99961.59;5066217;28;20035;-70
2024/01/03 06:22:59;;;;;;;6.47;0.80;;;;;;;6.32;100.00;99949.97;5065438;28;20029;-70
2024/01/03 06:25:24;;;;;;;4.10;0.70;;;;;;;6.32;100.00;99965.50;5067356;28;20320;-71
2024/01/03 06:27:50;;;;;;;3.28;1.45;;;;;;;6.32;100.00;99964.69;5059847;28;20036;-71
2024/01/03 06:30:15;;;;;;;2.30;1.00;;;;;;;6.37;100.00;99972.06;5067966;28;20033;-70
2024/01/03 06:32:41;;;;;;;4.13;1.33;;;;;;;6.38;100.00;99973.69;5069628;28;20052;-70
2024/01/03 06:35:06;;;;;;;4.97;1.52;;;;;;;6.42;100.00;99972.50;5073730;28;20098;-71
2024/01/03 06:37:32;;;;;;;3.47;1.23;;;;;;;6.45;100.00;99970.47;5061475;28;20029;-70
2024/01/03 06:39:58;;;;;;;5.95;1.83;;;;;;;6.44;100.00;99968.00;5061631;28;20028;-71
2024/01/03 06:42:23;;;;;;;4.50;1.75;;;;;;;6.46;100.00;99973.88;5061717;28;20032;-71
2024/01/03 06:44:49;;;;;;;5.10;1.20;;;;;;;6.40;100.00;99969.22;5060450;28;20024;-71
2024/01/03 06:47:14;;;;;;;4.63;1.65;;;;;;;6.40;100.00;99970.03;5059868;28;20885;-72
2024/01/03 06:49:39;;;;;;;7.40;1.40;;;;;;;6.38;100.00;99974.53;5059790;28;20033;-70
2024/01/03 06:52:05;;;;;;;4.55;1.30;;;;;;;6.36;100.00;99962.66;5060194;28;20041;-71
2024/01/03 06:54:31;;;;;;;5.65;1.67;;;;;;;6.36;100.00;99971.25;5059022;28;20032;-72
2024/01/03 06:56:56;;;;;;;3.38;1.00;;;;;;;6.37;100.00;99967.72;5057693;28;20575;-70
2024/01/03 06:59:21;;;;;;;4.22;1.33;;;;;;;6.39;100.00;99970.16;5059707;28;20029;-70
2024/01/03 07:01:47;;;;;;;2.72;1.38;;;;;;;6.41;100.00;99960.50;5058845;28;20116;-70
2024/01/03 07:04:13;;;;;;;3.45;1.45;;;;;;;6.41;100.00;99953.56;5060286;28;20495;-70
2024/01/03 07:06:38;;;;;;;2.88;1.30;;;;;;;6.43;100.00;99954.25;5056561;28;20029;-71
2024/01/03 07:09:05;;;;;;;3.80;1.20;;;;;;;6.46;100.00;99963.53;5063410;28;20032;-71
2024/01/03 07:11:30;;;;;;;2.80;1.42;;;;;;;6.47;100.00;99963.41;5060000;28;20427;-71
2024/01/03 07:13:58;;;;;;;6.50;1.63;;;;;;;6.47;100.00;99960.81;5060584;28;20111;-71
2024/01/03 07:16:25;;;;;;;4.25;1.45;;;;;;;6.51;100.00;99964.78;5062453;28;20079;-71
2024/01/03 07:18:50;;;;;;;3.75;1.67;;;;;;;6.55;100.00;99962.75;5065050;28;20041;-72
2024/01/03 07:21:16;;;;;;;5.75;2.05;;;;;;;6.58;100.00;99963.31;5057482;28;20032;-71
2024/01/03 07:23:41;;;;;;;4.13;1.95;;;;;;;6.60;100.00;99971.75;5058635;28;20043;-71
2024/01/03 07:26:07;;;;;;;4.60;1.63;;;;;;;6.61;100.00;99975.16;5060764;28;20773;-71
2024/01/03 07:28:32;;;;;;;6.78;1.73;;;;;;;6.57;100.00;99984.97;5059686;28;20095;-70
2024/01/03 07:30:58;;;;;;;3.45;1.45;;;;;;;6.58;100.00;99980.59;5059571;28;20043;-70
2024/01/03 07:33:24;;;;;;;3.47;1.58;;;;;;;6.59;100.00;99988.25;5059338;28;20029;-71
2024/01/03 07:35:49;;;;;;;7.60;2.03;;;;;;;6.62;100.00;99981.97;5059924;28;20416;-70
2024/01/03 07:38:15;;;;;;;4.68;1.58;;;;;;;6.64;100.00;99985.22;5067421;28;20486;-70
2024/01/03 07:40:40;;;;;;;3.80;1.10;;;;;;;6.66;100.00;99983.34;5068133;28;20093;-70
2024/01/03 07:43:05;;;;;;;6.05;1.50;;;;;;;6.68;100.00;99984.03;5064551;28;20517;-70
2024/01/03 07:45:31;;;;;;;4.85;1.42;;;;;;;6.67;100.00;99984.97;5059195;28;20025;-71
2024/01/03 07:47:56;;;;;;;3.50;1.63;;;;;;;6.66;100.00;99986.75;5069184;28;20024;-70
2024/01/03 07:50:22;;;;;;;7.30;3.10;;;;;;;6.63;100.00;99987.00;5069047;28;21196;-70
2024/01/03 07:52:47;;;;;;;5.65;1.50;;;;;;;6.67;100.00;99990.16;5057628;28;20378;-70
2024/01/03 07:55:13;;;;;;;6.97;2.17;;;;;;;6.71;100.00;99991.53;5058999;28;20059;-70
2024/01/03 07:57:38;;;;;;;6.38;2.00;;;;;;;6.71;100.00;99986.34;5060635;28;20028;-70
2024/01/03 08:00:04;;;;;;;3.47;1.50;;;;;;;6.71;100.00;99985.53;5069144;28;20040;-70
2024/01/03 08:02:30;;;;;;;3.75;2.03;;;;;;;6.71;100.00;99977.75;5068470;28;20035;-71
2024/01/03 08:04:55;;;;;;;5.55;2.10;;;;;;;6.75;100.00;99976.56;5069672;28;20033;-70
2024/01/03 08:07:21;;;;;;;7.43;1.83;;;;;;;6.78;100.00;99971.94;5067737;28;20028;-70
2024/01/03 08:09:47;;;;;;;4.55;1.90;;;;;;;6.81;100.00;99982.03;5069704;28;20029;-70
2024/01/03 08:12:12;;;;;;;4.63;2.28;;;;;;;6.82;100.00;99982.84;5068625;28;20485;-70
2024/01/03 08:14:38;;;;;;;3.92;1.98;;;;;;;6.84;100.00;99992.13;5069058;28;20036;-70
2024/01/03 08:17:03;;;;;;;4.53;2.25;;;;;;;6.85;100.00;99991.19;5067565;28;20397;-70
2024/01/03 08:19:29;;;;;;;5.80;2.22;;;;;;;6.86;100.00;99985.03;5069026;28;20032;-70
2024/01/03 08:21:55;;;;;;;5.00;2.25;;;;;;;6.81;100.00;99992.38;5068868;28;20098;-70
2024/01/03 08:24:20;;;;;;;3.45;2.17;;;;;;;6.78;100.00;99984.06;5068865;28;20040;-67
2024/01/03 08:26:47;;;;;;;5.25;2.35;;;;;;;6.79;100.00;99994.28;5066454;28;20028;-67
2024/01/03 08:29:13;;;;;;;5.60;2.00;;;;;;;6.81;100.00;99994.97;5068914;28;20039;-67
2024/01/03 08:31:38;;;;;;;9.10;2.90;;;;;;;6.79;100.00;99998.66;5067990;28;20094;-67
2024/01/03 08:34:04;;;;;;;9.65;2.70;;;;;;;6.75;100.00;99998.09;5068365;28;20028;-67
2024/01/03 08:36:40;;;;;;;6.32;2.55;;;;;;;6.76;100.00;99999.72;5068134;28;20032;-67
2024/01/03 08:39:06;;;;;;;4.28;2.03;;;;;;;6.81;100.00;100001.91;5068882;28;20512;-68
2024/01/03 08:41:31;;;;;;;5.50;1.92;;;;;;;6.82;100.00;100006.97;5068353;28;20505;-67
2024/01/03 08:43:57;;;;;;;10.98;2.55;;;;;;;6.80;100.00;100005.47;5067742;28;20039;-67
2024/01/03 08:46:25;;;;;;;6.38;2.22;;;;;;;6.78;100.00;100013.38;5066998;28;20054;-67
2024/01/03 08:48:50;;;;;;;4.60;2.05;;;;;;;6.80;100.00;100014.06;5067843;28;20386;-67
2024/01/03 08:51:19;;;;;;;4.13;1.73;;;;;;;6.86;100.00;100016.13;5067389;28;20037;-67
2024/01/03 08:53:44;;;;;;;7.75;3.97;;;;;;;6.89;100.00;100013.25;5066514;28;20036;-67
2024/01/03 08:56:17;;;;;;;5.78;2.15;;;;;;;6.91;100.00;100019.13;5068321;28;20086;-67
2024/01/03 08:58:45;;;;;;;6.00;2.60;;;;;;;6.92;100.00;100027.72;5065640;28;20377;-67
2024/01/03 09:01:18;;;;;;;5.18;2.30;;;;;;;6.92;100.00;100025.94;5065293;28;20123;-67
2024/01/03 09:03:45;;;;;;;6.22;2.50;;;;;;;6.96;100.00;100026.50;5069075;28;20481;-67
2024/01/03 09:06:22;;;;;;;6.00;2.90;;;;;;;6.94;100.00;100028.41;5066649;28;20098;-67
2024/01/03 09:08:50;;;;;;;8.13;3.00;;;;;;;6.93;100.00;100032.78;5067484;28;20047;-67
2024/01/03 09:11:19;;;;;;;4.72;2.50;;;;;;;6.94;100.00;100039.59;5066291;28;20843;-67
2024/01/03 09:13:49;;;;;;;5.75;2.67;;;;;;;6.92;100.00;100040.69;5065395;28;20025;-68
2024/01/03 09:16:17;;;;;;;7.68;2.83;;;;;;;6.91;100.00;100049.41;5065900;28;20029;-68
2024/01/03 09:18:42;;;;;;;5.90;2.53;;;;;;;6.89;100.00;100041.75;5063951;28;20351;-67
2024/01/03 09:21:08;;;;;;;8.55;4.05;;;;;;;6.90;100.00;100048.56;5069671;28;20044;-68
2024/01/03 09:23:34;;;;;;;7.72;3.35;;;;;;;6.90;100.00;100038.22;5063335;28;20032;-71
2024/01/03 09:26:03;;;;;;;8.52;3.50;;;;;;;6.89;100.00;100052.13;5067372;28;20531;-71
2024/01/03 09:28:29;;;;;;;6.28;3.47;;;;;;;6.92;100.00;100053.63;5068266;28;20131;-71
2024/01/03 09:30:54;;;;;;;7.53;3.65;;;;;;;6.92;100.00;100056.22;5066428;28;20347;-71
2024/01/03 09:33:19;;;;;;;8.07;3.28;;;;;;;6.97;100.00;100054.88;5062697;28;20028;-72
2024/01/03 09:35:45;;;;;;;10.60;3.97;;;;;;;6.96;100.00;100058.41;5060879;28;20028;-71
2024/01/03 09:38:12;;;;;;;11.68;4.47;;;;;;;7.01;100.00;100059.78;5058916;28;20115;-71
2024/01/03 09:40:38;;;;;;;12.85;4.47;;;;;;;7.05;100.00;100064.59;5063536;28;20032;-71
2024/01/03 09:43:04;;;;;;;5.85;2.10;;;;;;;7.09;100.00;100063.34;5067726;28;20025;-71
2024/01/03 09:45:30;;;;;;;3.75;2.08;;;;;;;7.08;100.00;100061.72;5064658;28;21122;-71
2024/01/03 09:47:57;;;;;;;2.78;1.27;;;;;;;7.11;100.00;100063.22;5063904;28;20115;-71
2024/01/03 09:50:22;;;;;;;6.30;1.95;;;;;;;7.16;100.00;100058.44;5065123;28;20044;-71
2024/01/03 09:52:49;;;;;;;3.17;1.10;;;;;;;7.16;100.00;100058.44;5066670;28;20043;-73
2024/01/03 09:55:15;;;;;;;2.65;1.17;;;;;;;7.13;100.00;100048.34;5065287;28;20036;-71
2024/01/03 09:57:42;;;;;;;2.03;0.73;;;;;;;7.07;100.00;100051.50;5062402;28;20032;-72
2024/01/03 10:00:08;;;;;;;2.63;1.15;;;;;;;7.04;100.00;100044.00;5069154;28;20131;-71
2024/01/03 10:02:36;;;;;;;2.35;0.77;;;;;;;7.09;100.00;100047.00;5069262;28;20414;-71
2024/01/03 10:05:03;;;;;;;3.53;1.30;;;;;;;7.15;100.00;100042.09;5071576;28;20480;-73
2024/01/03 10:07:36;;;;;;;5.13;1.10;;;;;;;7.19;100.00;100047.81;5070751;28;20124;-72
2024/01/03 10:10:02;;;;;;;1.77;0.90;;;;;;;7.18;100.00;100041.81;5071763;28;20104;-73
2024/01/03 10:12:32;;;;;;;3.33;1.23;;;;;;;7.19;100.00;100045.22;5068309;28;20120;-73
2024/01/03 10:15:16;;;;;;;2.55;0.80;;;;;;;7.16;100.00;100040.31;5069048;28;20489;-73
2024/01/03 10:17:48;;;;;;;1.77;0.73;;;;;;;7.12;100.00;100031.16;5068088;28;20033;-73
2024/01/03 10:20:24;;;;;;;5.35;1.10;;;;;;;7.14;100.00;100034.44;5071078;28;20103;-73
2024/01/03 10:23:22;;;;;;;2.30;0.70;;;;;;;7.19;100.00;100027.09;5072432;28;20457;-73
2024/01/03 10:25:55;;;;;;;3.53;0.95;;;;;;;7.19;100.00;100032.28;5069395;28;20036;-73
2024/01/03 10:28:20;;;;;;;2.30;1.00;;;;;;;7.20;100.00;100026.97;5070245;28;20127;-71
2024/01/03 10:30:57;;;;;;;3.03;1.08;;;;;;;7.25;100.00;100036.94;5067991;28;20033;-71
2024/01/03 10:33:23;;;;;;;1.77;0.60;;;;;;;7.31;100.00;100031.22;5065919;28;20028;-71
2024/01/03 10:35:48;;;;;;;3.83;1.23;;;;;;;7.36;100.00;100031.63;5071492;28;20428;-71
2024/01/03 10:38:15;;;;;;;2.40;1.20;;;;;;;7.38;100.00;100034.91;5071285;28;20021;-71
2024/01/03 10:40:41;;;;;;;2.63;0.70;;;;;;;7.40;100.00;100034.78;5069278;28;20137;-71
2024/01/03 10:43:10;;;;;;;2.22;0.98;;;;;;;7.42;100.00;100022.50;5068984;28;20033;-69
2024/01/03 10:45:36;;;;;;;2.45;0.88;;;;;;;7.43;100.00;100021.56;5070615;28;20036;-70
2024/01/03 10:48:01;;;;;;;2.50;0.80;;;;;;;7.41;100.00;100021.69;5073401;28;20048;-70
2024/01/03 10:50:28;;;;;;;2.70;1.05;;;;;;;7.31;100.00;100019.09;5067481;28;20504;-70
2024/01/03 10:52:57;;;;;;;4.57;1.73;;;;;;;7.32;100.00;100022.50;5073285;28;20381;-70
2024/01/03 10:55:35;;;;;;;4.13;1.85;;;;;;;7.38;100.00;100027.13;5069983;28;20033;-70
2024/01/03 10:58:06;;;;;;;4.40;1.92;;;;;;;7.38;100.00;100021.97;5061282;28;20138;-70
2024/01/03 11:00:53;;;;;;;3.10;1.67;;;;;;;7.33;100.00;100024.13;5070859;28;20118;-70
2024/01/03 11:03:39;;;;;;;3.72;1.50;;;;;;;7.38;100.00;100024.53;5066997;28;20097;-70
2024/01/03 11:06:23;;;;;;;3.38;1.77;;;;;;;7.42;100.00;100018.13;5069797;28;20036;-70
2024/01/03 11:08:51;;;;;;;3.83;1.80;;;;;;;7.45;100.00;100017.88;5070721;28;20124;-70
2024/01/03 11:11:37;;;;;;;3.97;1.83;;;;;;;7.45;100.00;100012.69;5071056;28;20090;-69
2024/01/03 11:14:18;;;;;;;7.00;1.85;;;;;;;7.47;100.00;100005.59;5065153;28;20039;-70
2024/01/03 11:16:44;;;;;;;3.25;1.52;;;;;;;7.49;100.00;100011.47;5073219;28;20385;-70
2024/01/03 11:19:11;;;;;;;5.85;1.48;;;;;;;7.43;100.00;100014.59;5071142;28;20477;-70
2024/01/03 11:21:39;;;;;;;4.35;2.05;;;;;;;7.48;100.00;100009.81;5070171;28;20055;-70
2024/01/03 11:24:24;;;;;;;4.43;1.95;;;;;;;7.49;100.00;100008.88;5072136;28;20024;-70